Flight Track Log - Related Links

Times and Time Zones

All times are in EDT time to prevent confusion due to time zone crossing. See the GJS3710 flight status page for this flight to view local times or setup timezone preferences in your user account.

Time Position Orientation Groundspeed Altitude Reporting Facility
EDT Latitude Longitude Course Direction KTS MPH feet Rate Location/Type
Sun 08:46:37 PM 41.9233 -87.9397 270° West 180 207 2,700  Level Chicago Center
Sun 08:47:39 PM 41.9133 -88.0203 261° West 234 269 5,000 2,488 Climbing Chicago Center
Sun 08:48:40 PM 41.9100 -88.1122 267° West 245 282 7,800 2,803 Climbing Chicago Center
Sun 08:49:41 PM 41.8897 -88.2322 257° West 278 320 10,700 2,410 Climbing Chicago Center
Sun 08:50:42 PM 41.8700 -88.3406 256° West 296 341 12,700 2,016 Climbing Chicago Center
Sun 08:51:00 PM 41.9667 -88.5097 270° West  Level FlightAware Approximate
Sun 08:51:43 PM 41.8478 -88.4561 256° West 319 367 14,800  Level Chicago Center
Sun 08:52:45 PM 41.8267 -88.5772 257° West 333 383 16,000 585 Climbing Chicago Center
Sun 08:53:46 PM 41.8033 -88.6989 256° West 340 391 16,000 49 Level Chicago Center
Sun 08:54:47 PM 41.7811 -88.8189 256° West 337 388 16,100 49 Climbing Chicago Center
Sun 08:55:48 PM 41.7594 -88.9378 256° West 332 382 16,100  Level Chicago Center
Sun 08:56:49 PM 41.7314 -89.0822 255° West 336 387 16,100  Level Chicago Center
Sun 08:57:51 PM 41.7094 -89.2019 256° West 335 386 16,100  Level Chicago Center
Sun 08:58:52 PM 41.6864 -89.3211 256° West 334 384 16,100 -49 Level Chicago Center
Sun 08:59:53 PM 41.6647 -89.4383 256° West 330 380 16,000 -590 Descending Chicago Center
Sun 09:00:54 PM 41.6419 -89.5553 255° West 327 376 14,900 -1,180 Descending Chicago Center
Sun 09:01:55 PM 41.6169 -89.6711 254° West 325 374 13,600 -1,279 Descending Chicago Center
Sun 09:02:56 PM 41.6058 -89.7861 263° West 315 362 12,300 -1,268 Descending Chicago Center
Sun 09:03:58 PM 41.6033 -89.8978 268° West 302 348 11,000 -1,415 Descending Chicago Center
Sun 09:04:59 PM 41.6019 -90.0028 269° West 285 328 9,400 -984 Descending Chicago Center
Sun 09:06:00 PM 41.6292 -90.0975 291° West 273 314 9,000 -197 Descending Chicago Center
Sun 09:07:01 PM 41.6628 -90.1892 296° West 275 316 9,000 -393 Level Chicago Center
Sun 09:08:02 PM 41.7028 -90.2967 297° West 269 310 8,200 -1,082 Descending Chicago Center
Sun 09:09:03 PM 41.7147 -90.3856 280° West 258 297 6,800 -1,328 Descending Chicago Center
Sun 09:10:04 PM 41.7017 -90.4772 259° West 252 290 5,500 -1,122 Descending Chicago Center
Sun 09:11:06 PM 41.6753 -90.5614 247° West 250 288 4,500 -927 Descending Chicago Center
Sun 09:12:07 PM 41.6300 -90.6233 226° Southwest 247 284 3,600 -738 Descending Chicago Center
Sun 09:13:08 PM 41.5728 -90.6708 212° Southwest 249 287 3,000 -590 Descending Chicago Center

Login

Don't have an account? Register now (free) for customized features, flight alerts, and more!